sensor_id;sensor_type;location;lat;lon;timestamp;pressure;altitude;pressure_sealevel;temperature;humidity
32933;BME280;19444;50.518;10.870;2022-08-05T00:00:28;96252.03;;;20.31;100.00
32933;BME280;19444;50.518;10.870;2022-08-05T00:03:25;96248.09;;;20.28;100.00
32933;BME280;19444;50.518;10.870;2022-08-05T00:06:27;96248.88;;;20.25;100.00
32933;BME280;19444;50.518;10.870;2022-08-05T00:09:31;96240.25;;;20.16;100.00
32933;BME280;19444;50.518;10.870;2022-08-05T00:12:28;96241.16;;;20.31;100.00
32933;BME280;19444;50.518;10.870;2022-08-05T00:15:25;96240.06;;;20.42;100.00
32933;BME280;19444;50.518;10.870;2022-08-05T00:18:45;96235.19;;;20.14;100.00
32933;BME280;19444;50.518;10.870;2022-08-05T00:21:44;96230.69;;;20.36;100.00
32933;BME280;19444;50.518;10.870;2022-08-05T00:24:41;96231.44;;;20.33;100.00
32933;BME280;19444;50.518;10.870;2022-08-05T00:27:38;96228.28;;;20.28;100.00
32933;BME280;19444;50.518;10.870;2022-08-05T00:30:38;96234.34;;;20.10;100.00
32933;BME280;19444;50.518;10.870;2022-08-05T00:33:39;96224.03;;;20.30;100.00
32933;BME280;19444;50.518;10.870;2022-08-05T00:36:56;96224.75;;;20.24;100.00
32933;BME280;19444;50.518;10.870;2022-08-05T00:40:08;96224.66;;;20.13;100.00
32933;BME280;19444;50.518;10.870;2022-08-05T00:43:05;96223.78;;;20.02;100.00
32933;BME280;19444;50.518;10.870;2022-08-05T00:46:03;96212.94;;;20.05;100.00
32933;BME280;19444;50.518;10.870;2022-08-05T00:49:00;96218.00;;;20.03;100.00
32933;BME280;19444;50.518;10.870;2022-08-05T00:51:58;96216.50;;;20.13;100.00
32933;BME280;19444;50.518;10.870;2022-08-05T00:54:55;96213.94;;;19.86;100.00
32933;BME280;19444;50.518;10.870;2022-08-05T00:57:52;96214.72;;;19.87;100.00
32933;BME280;19444;50.518;10.870;2022-08-05T01:00:54;96217.09;;;19.92;100.00
32933;BME280;19444;50.518;10.870;2022-08-05T01:03:52;96210.19;;;20.02;100.00
32933;BME280;19444;50.518;10.870;2022-08-05T01:06:49;96210.06;;;19.87;100.00
32933;BME280;19444;50.518;10.870;2022-08-05T01:09:48;96213.28;;;20.00;100.00
32933;BME280;19444;50.518;10.870;2022-08-05T01:13:09;96212.66;;;20.17;100.00
32933;BME280;19444;50.518;10.870;2022-08-05T01:16:46;96203.69;;;20.13;100.00
32933;BME280;19444;50.518;10.870;2022-08-05T01:20:33;96205.44;;;19.92;100.00
32933;BME280;19444;50.518;10.870;2022-08-05T01:24:19;96189.63;;;20.08;100.00
32933;BME280;19444;50.518;10.870;2022-08-05T01:27:40;96193.59;;;20.17;100.00
32933;BME280;19444;50.518;10.870;2022-08-05T01:31:03;96185.50;;;20.28;100.00
32933;BME280;19444;50.518;10.870;2022-08-05T01:34:19;96182.44;;;20.33;100.00
32933;BME280;19444;50.518;10.870;2022-08-05T01:37:39;96185.44;;;20.17;100.00
32933;BME280;19444;50.518;10.870;2022-08-05T01:40:41;96196.19;;;20.00;100.00
32933;BME280;19444;50.518;10.870;2022-08-05T01:43:38;96186.00;;;19.93;100.00
32933;BME280;19444;50.518;10.870;2022-08-05T01:46:37;96185.91;;;19.82;100.00
32933;BME280;19444;50.518;10.870;2022-08-05T01:49:39;96185.53;;;19.80;100.00
32933;BME280;19444;50.518;10.870;2022-08-05T01:53:08;96180.94;;;19.92;100.00
32933;BME280;19444;50.518;10.870;2022-08-05T01:56:08;96178.13;;;19.77;100.00
32933;BME280;19444;50.518;10.870;2022-08-05T01:59:12;96181.38;;;19.94;100.00
32933;BME280;19444;50.518;10.870;2022-08-05T02:02:11;96184.91;;;20.01;100.00
32933;BME280;19444;50.518;10.870;2022-08-05T02:05:12;96173.38;;;20.15;100.00
32933;BME280;19444;50.518;10.870;2022-08-05T02:08:11;96171.75;;;20.07;100.00
32933;BME280;19444;50.518;10.870;2022-08-05T02:11:25;96163.66;;;20.17;100.00
32933;BME280;19444;50.518;10.870;2022-08-05T02:14:57;96165.47;;;19.99;100.00
32933;BME280;19444;50.518;10.870;2022-08-05T02:21:27;96181.47;;;20.08;100.00
32933;BME280;19444;50.518;10.870;2022-08-05T02:24:40;96184.97;;;20.05;100.00
32933;BME280;19444;50.518;10.870;2022-08-05T02:27:48;96170.91;;;19.96;100.00
32933;BME280;19444;50.518;10.870;2022-08-05T02:31:00;96170.22;;;20.09;100.00
32933;BME280;19444;50.518;10.870;2022-08-05T02:34:07;96166.44;;;20.21;100.00
32933;BME280;19444;50.518;10.870;2022-08-05T02:37:08;96162.91;;;20.17;100.00
32933;BME280;19444;50.518;10.870;2022-08-05T02:40:07;96168.03;;;20.29;100.00
32933;BME280;19444;50.518;10.870;2022-08-05T02:43:06;96170.34;;;20.27;100.00
32933;BME280;19444;50.518;10.870;2022-08-05T02:46:03;96162.94;;;20.24;100.00
32933;BME280;19444;50.518;10.870;2022-08-05T02:49:02;96176.88;;;20.12;100.00
32933;BME280;19444;50.518;10.870;2022-08-05T02:52:17;96184.22;;;20.11;100.00
32933;BME280;19444;50.518;10.870;2022-08-05T02:55:27;96178.88;;;20.22;100.00
32933;BME280;19444;50.518;10.870;2022-08-05T02:58:46;96247.31;;;20.76;100.00
32933;BME280;19444;50.518;10.870;2022-08-05T03:01:48;96294.00;;;20.74;100.00
32933;BME280;19444;50.518;10.870;2022-08-05T03:04:50;96264.38;;;21.27;100.00
32933;BME280;19444;50.518;10.870;2022-08-05T03:07:49;96297.63;;;21.62;92.33
32933;BME280;19444;50.518;10.870;2022-08-05T03:11:15;96294.09;;;21.57;95.36
32933;BME280;19444;50.518;10.870;2022-08-05T03:14:33;96314.41;;;21.71;98.45
32933;BME280;19444;50.518;10.870;2022-08-05T03:17:41;96292.22;;;21.83;96.66
32933;BME280;19444;50.518;10.870;2022-08-05T03:20:40;96292.63;;;21.81;100.00
32933;BME280;19444;50.518;10.870;2022-08-05T03:23:44;96304.94;;;21.47;100.00
32933;BME280;19444;50.518;10.870;2022-08-05T03:26:42;96292.78;;;21.26;100.00
32933;BME280;19444;50.518;10.870;2022-08-05T03:29:45;96285.25;;;21.93;100.00
32933;BME280;19444;50.518;10.870;2022-08-05T03:33:04;96288.28;;;21.59;100.00
32933;BME280;19444;50.518;10.870;2022-08-05T03:36:04;96278.16;;;21.60;100.00
32933;BME280;19444;50.518;10.870;2022-08-05T03:39:07;96293.25;;;21.46;100.00
32933;BME280;19444;50.518;10.870;2022-08-05T03:42:15;96294.91;;;21.58;100.00
32933;BME280;19444;50.518;10.870;2022-08-05T03:45:12;96289.00;;;21.49;100.00
32933;BME280;19444;50.518;10.870;2022-08-05T03:48:21;96293.94;;;21.25;100.00
32933;BME280;19444;50.518;10.870;2022-08-05T03:51:27;96291.88;;;21.12;100.00
32933;BME280;19444;50.518;10.870;2022-08-05T03:58:11;96292.88;;;20.82;100.00
32933;BME280;19444;50.518;10.870;2022-08-05T04:01:08;96281.06;;;20.64;100.00
32933;BME280;19444;50.518;10.870;2022-08-05T04:04:09;96276.25;;;20.98;100.00
32933;BME280;19444;50.518;10.870;2022-08-05T04:07:12;96263.09;;;21.11;100.00
32933;BME280;19444;50.518;10.870;2022-08-05T04:10:11;96261.88;;;21.01;100.00
32933;BME280;19444;50.518;10.870;2022-08-05T04:13:13;96252.97;;;21.11;100.00
32933;BME280;19444;50.518;10.870;2022-08-05T04:16:12;96260.34;;;21.11;100.00
32933;BME280;19444;50.518;10.870;2022-08-05T04:19:11;96256.50;;;21.15;100.00
32933;BME280;19444;50.518;10.870;2022-08-05T04:22:09;96256.63;;;20.67;100.00
32933;BME280;19444;50.518;10.870;2022-08-05T04:25:08;96253.78;;;21.15;100.00
32933;BME280;19444;50.518;10.870;2022-08-05T04:28:06;96240.28;;;21.40;100.00
32933;BME280;19444;50.518;10.870;2022-08-05T04:31:08;96242.31;;;21.65;100.00
32933;BME280;19444;50.518;10.870;2022-08-05T04:34:06;96238.81;;;21.68;100.00
32933;BME280;19444;50.518;10.870;2022-08-05T04:37:23;96246.25;;;21.81;100.00
32933;BME280;19444;50.518;10.870;2022-08-05T04:40:40;96245.84;;;21.79;100.00
32933;BME280;19444;50.518;10.870;2022-08-05T04:43:46;96236.13;;;21.78;100.00
32933;BME280;19444;50.518;10.870;2022-08-05T04:46:48;96234.19;;;21.90;100.00
32933;BME280;19444;50.518;10.870;2022-08-05T04:49:48;96234.59;;;21.95;100.00
32933;BME280;19444;50.518;10.870;2022-08-05T04:53:06;96246.66;;;22.01;100.00
32933;BME280;19444;50.518;10.870;2022-08-05T04:56:07;96264.63;;;22.09;100.00
32933;BME280;19444;50.518;10.870;2022-08-05T04:59:24;96269.66;;;21.97;100.00
32933;BME280;19444;50.518;10.870;2022-08-05T05:02:36;96269.25;;;21.91;100.00
32933;BME280;19444;50.518;10.870;2022-08-05T05:05:38;96268.88;;;21.96;100.00
32933;BME280;19444;50.518;10.870;2022-08-05T05:08:55;96280.97;;;21.99;100.00
32933;BME280;19444;50.518;10.870;2022-08-05T05:11:53;96306.34;;;22.06;100.00
32933;BME280;19444;50.518;10.870;2022-08-05T05:14:58;96317.63;;;22.05;100.00
32933;BME280;19444;50.518;10.870;2022-08-05T05:17:59;96334.81;;;22.09;100.00
32933;BME280;19444;50.518;10.870;2022-08-05T05:20:56;96353.47;;;22.00;100.00
32933;BME280;19444;50.518;10.870;2022-08-05T05:23:54;96370.25;;;21.95;100.00
32933;BME280;19444;50.518;10.870;2022-08-05T05:27:00;96371.72;;;21.85;100.00
32933;BME280;19444;50.518;10.870;2022-08-05T05:29:57;96372.47;;;21.75;100.00
32933;BME280;19444;50.518;10.870;2022-08-05T05:33:03;96383.78;;;21.73;100.00
32933;BME280;19444;50.518;10.870;2022-08-05T05:36:12;96392.00;;;21.80;100.00
32933;BME280;19444;50.518;10.870;2022-08-05T05:39:11;96393.50;;;21.74;100.00
32933;BME280;19444;50.518;10.870;2022-08-05T05:42:09;96408.72;;;21.72;100.00
32933;BME280;19444;50.518;10.870;2022-08-05T05:45:09;96418.81;;;21.68;100.00
32933;BME280;19444;50.518;10.870;2022-08-05T05:48:09;96420.81;;;21.78;100.00
32933;BME280;19444;50.518;10.870;2022-08-05T05:51:21;96407.97;;;21.82;100.00
32933;BME280;19444;50.518;10.870;2022-08-05T05:54:18;96401.00;;;21.92;100.00
32933;BME280;19444;50.518;10.870;2022-08-05T05:57:15;96403.38;;;21.97;100.00
32933;BME280;19444;50.518;10.870;2022-08-05T06:00:19;96408.88;;;22.04;100.00
32933;BME280;19444;50.518;10.870;2022-08-05T06:03:23;96390.97;;;22.10;100.00
32933;BME280;19444;50.518;10.870;2022-08-05T06:06:42;96402.34;;;22.23;100.00
32933;BME280;19444;50.518;10.870;2022-08-05T06:09:45;96411.66;;;22.18;100.00
32933;BME280;19444;50.518;10.870;2022-08-05T06:12:59;96424.94;;;22.30;100.00
32933;BME280;19444;50.518;10.870;2022-08-05T06:15:56;96418.28;;;22.21;100.00
32933;BME280;19444;50.518;10.870;2022-08-05T06:19:13;96405.81;;;22.20;100.00
32933;BME280;19444;50.518;10.870;2022-08-05T06:22:32;96406.66;;;22.34;100.00
32933;BME280;19444;50.518;10.870;2022-08-05T06:25:30;96398.03;;;22.29;100.00
32933;BME280;19444;50.518;10.870;2022-08-05T06:28:46;96392.63;;;22.43;100.00
32933;BME280;19444;50.518;10.870;2022-08-05T06:31:43;96398.09;;;22.54;100.00
32933;BME280;19444;50.518;10.870;2022-08-05T06:34:41;96396.94;;;22.51;100.00
32933;BME280;19444;50.518;10.870;2022-08-05T06:37:42;96395.00;;;22.73;100.00
32933;BME280;19444;50.518;10.870;2022-08-05T06:40:55;96415.72;;;22.92;100.00
32933;BME280;19444;50.518;10.870;2022-08-05T06:43:52;96412.63;;;22.97;100.00
32933;BME280;19444;50.518;10.870;2022-08-05T06:46:56;96404.81;;;23.17;100.00
32933;BME280;19444;50.518;10.870;2022-08-05T06:49:57;96397.75;;;23.26;100.00
32933;BME280;19444;50.518;10.870;2022-08-05T06:52:57;96412.59;;;23.50;100.00
32933;BME280;19444;50.518;10.870;2022-08-05T06:56:14;96406.69;;;23.55;100.00
32933;BME280;19444;50.518;10.870;2022-08-05T06:59:22;96407.09;;;23.54;100.00
32933;BME280;19444;50.518;10.870;2022-08-05T07:02:19;96398.91;;;23.61;100.00
32933;BME280;19444;50.518;10.870;2022-08-05T07:05:18;96400.38;;;23.83;100.00
32933;BME280;19444;50.518;10.870;2022-08-05T07:08:23;96419.13;;;23.99;96.34
32933;BME280;19444;50.518;10.870;2022-08-05T07:11:24;96414.78;;;24.02;95.97
32933;BME280;19444;50.518;10.870;2022-08-05T07:14:24;96417.03;;;24.32;99.36
32933;BME280;19444;50.518;10.870;2022-08-05T07:17:39;96432.59;;;24.49;98.76
32933;BME280;19444;50.518;10.870;2022-08-05T07:20:56;96431.53;;;24.32;93.30
32933;BME280;19444;50.518;10.870;2022-08-05T07:24:00;96426.81;;;24.36;92.13
32933;BME280;19444;50.518;10.870;2022-08-05T07:26:58;96419.84;;;24.10;92.95
32933;BME280;19444;50.518;10.870;2022-08-05T07:29:58;96420.28;;;24.02;94.45
32933;BME280;19444;50.518;10.870;2022-08-05T07:33:15;96413.97;;;24.12;96.54
32933;BME280;19444;50.518;10.870;2022-08-05T07:36:13;96399.56;;;24.01;98.02
32933;BME280;19444;50.518;10.870;2022-08-05T07:39:17;96408.06;;;24.24;99.26
32933;BME280;19444;50.518;10.870;2022-08-05T07:42:34;96426.44;;;24.27;97.54
32933;BME280;19444;50.518;10.870;2022-08-05T07:45:32;96423.31;;;24.22;99.90
32933;BME280;19444;50.518;10.870;2022-08-05T07:48:49;96421.34;;;24.22;96.02
32933;BME280;19444;50.518;10.870;2022-08-05T07:52:00;96431.09;;;24.37;92.89
32933;BME280;19444;50.518;10.870;2022-08-05T07:54:57;96440.94;;;24.17;95.04
32933;BME280;19444;50.518;10.870;2022-08-05T07:57:54;96438.81;;;24.57;94.72
32933;BME280;19444;50.518;10.870;2022-08-05T08:00:59;96445.94;;;24.44;97.68
32933;BME280;19444;50.518;10.870;2022-08-05T08:04:01;96436.97;;;24.29;94.19
32933;BME280;19444;50.518;10.870;2022-08-05T08:06:59;96439.75;;;24.32;98.51
32933;BME280;19444;50.518;10.870;2022-08-05T08:10:01;96451.44;;;24.40;94.81
32933;BME280;19444;50.518;10.870;2022-08-05T08:12:58;96449.00;;;24.60;93.87
32933;BME280;19444;50.518;10.870;2022-08-05T08:15:57;96440.50;;;24.36;99.67
32933;BME280;19444;50.518;10.870;2022-08-05T08:19:14;96427.13;;;24.49;94.06
32933;BME280;19444;50.518;10.870;2022-08-05T08:22:33;96425.75;;;25.34;100.00
32933;BME280;19444;50.518;10.870;2022-08-05T08:25:38;96422.03;;;25.10;91.28
32933;BME280;19444;50.518;10.870;2022-08-05T08:28:55;96426.22;;;25.26;91.01
32933;BME280;19444;50.518;10.870;2022-08-05T08:31:58;96432.78;;;24.83;91.74
32933;BME280;19444;50.518;10.870;2022-08-05T08:34:55;96423.34;;;25.40;89.96
32933;BME280;19444;50.518;10.870;2022-08-05T08:37:52;96431.03;;;25.11;90.60
32933;BME280;19444;50.518;10.870;2022-08-05T08:40:52;96437.00;;;24.99;93.98
32933;BME280;19444;50.518;10.870;2022-08-05T08:43:52;96440.91;;;24.98;90.27
32933;BME280;19444;50.518;10.870;2022-08-05T08:47:10;96447.63;;;24.89;91.62
32933;BME280;19444;50.518;10.870;2022-08-05T08:50:29;96446.84;;;24.85;91.21
32933;BME280;19444;50.518;10.870;2022-08-05T08:53:47;96447.31;;;24.80;92.93
32933;BME280;19444;50.518;10.870;2022-08-05T08:56:44;96463.03;;;24.69;93.11
32933;BME280;19444;50.518;10.870;2022-08-05T08:59:45;96471.91;;;24.91;93.62
32933;BME280;19444;50.518;10.870;2022-08-05T09:02:45;96464.88;;;26.21;87.83
32933;BME280;19444;50.518;10.870;2022-08-05T09:05:43;96457.84;;;26.54;83.86
32933;BME280;19444;50.518;10.870;2022-08-05T09:09:01;96450.56;;;26.36;84.95
32933;BME280;19444;50.518;10.870;2022-08-05T09:11:59;96449.25;;;26.48;84.69
32933;BME280;19444;50.518;10.870;2022-08-05T09:15:16;96440.44;;;26.60;81.20
32933;BME280;19444;50.518;10.870;2022-08-05T09:18:15;96439.47;;;26.47;93.92
32933;BME280;19444;50.518;10.870;2022-08-05T09:21:12;96438.28;;;27.02;81.94
32933;BME280;19444;50.518;10.870;2022-08-05T09:24:30;96423.72;;;27.05;79.80
32933;BME280;19444;50.518;10.870;2022-08-05T09:27:35;96430.59;;;27.64;74.05
32933;BME280;19444;50.518;10.870;2022-08-05T09:31:07;96422.34;;;27.64;69.49
32933;BME280;19444;50.518;10.870;2022-08-05T09:34:25;96420.63;;;27.93;68.60
32933;BME280;19444;50.518;10.870;2022-08-05T09:37:24;96422.81;;;28.02;73.91
32933;BME280;19444;50.518;10.870;2022-08-05T09:40:42;96419.75;;;27.76;57.91
32933;BME280;19444;50.518;10.870;2022-08-05T09:43:48;96425.16;;;28.03;59.80
32933;BME280;19444;50.518;10.870;2022-08-05T09:46:45;96429.56;;;27.77;56.13
32933;BME280;19444;50.518;10.870;2022-08-05T09:49:52;96427.63;;;28.38;61.59
32933;BME280;19444;50.518;10.870;2022-08-05T09:52:58;96428.03;;;27.76;58.80
32933;BME280;19444;50.518;10.870;2022-08-05T09:56:00;96427.34;;;28.32;56.95
32933;BME280;19444;50.518;10.870;2022-08-05T09:59:11;96420.53;;;27.97;54.69
32933;BME280;19444;50.518;10.870;2022-08-05T10:02:13;96420.16;;;27.98;55.70
32933;BME280;19444;50.518;10.870;2022-08-05T10:05:18;96425.31;;;28.36;58.77
32933;BME280;19444;50.518;10.870;2022-08-05T10:08:23;96411.28;;;28.47;58.33
32933;BME280;19444;50.518;10.870;2022-08-05T10:11:33;96400.13;;;28.54;56.50
32933;BME280;19444;50.518;10.870;2022-08-05T10:14:31;96401.38;;;28.49;57.37
32933;BME280;19444;50.518;10.870;2022-08-05T10:17:28;96417.56;;;28.83;59.92
32933;BME280;19444;50.518;10.870;2022-08-05T10:20:49;96394.44;;;28.77;54.91
32933;BME280;19444;50.518;10.870;2022-08-05T10:23:46;96402.25;;;28.46;55.97
32933;BME280;19444;50.518;10.870;2022-08-05T10:26:56;96400.03;;;29.10;57.36
32933;BME280;19444;50.518;10.870;2022-08-05T10:29:56;96402.09;;;28.70;57.03
32933;BME280;19444;50.518;10.870;2022-08-05T10:33:14;96402.63;;;28.28;54.71
32933;BME280;19444;50.518;10.870;2022-08-05T10:36:11;96401.22;;;28.56;52.15
32933;BME280;19444;50.518;10.870;2022-08-05T10:39:19;96389.19;;;28.83;55.50
32933;BME280;19444;50.518;10.870;2022-08-05T10:42:23;96390.03;;;28.27;54.77
32933;BME280;19444;50.518;10.870;2022-08-05T10:45:30;96380.69;;;28.41;54.15
32933;BME280;19444;50.518;10.870;2022-08-05T10:48:43;96382.59;;;28.97;52.58
32933;BME280;19444;50.518;10.870;2022-08-05T10:51:55;96392.31;;;28.85;52.70
32933;BME280;19444;50.518;10.870;2022-08-05T10:55:04;96379.22;;;28.17;53.80
32933;BME280;19444;50.518;10.870;2022-08-05T10:58:10;96393.22;;;27.86;62.30
32933;BME280;19444;50.518;10.870;2022-08-05T11:01:11;96384.13;;;27.89;57.55
32933;BME280;19444;50.518;10.870;2022-08-05T11:04:16;96386.66;;;28.00;64.12
32933;BME280;19444;50.518;10.870;2022-08-05T11:07:17;96371.88;;;28.10;54.34
32933;BME280;19444;50.518;10.870;2022-08-05T11:10:30;96377.09;;;28.04;60.17
32933;BME280;19444;50.518;10.870;2022-08-05T11:13:42;96381.81;;;27.64;63.46
32933;BME280;19444;50.518;10.870;2022-08-05T11:20:44;96403.63;;;27.55;56.31
32933;BME280;19444;50.518;10.870;2022-08-05T11:23:52;96396.09;;;27.79;54.17
32933;BME280;19444;50.518;10.870;2022-08-05T11:27:29;96404.44;;;27.75;53.50
32933;BME280;19444;50.518;10.870;2022-08-05T11:34:05;96420.63;;;27.73;49.87
32933;BME280;19444;50.518;10.870;2022-08-05T11:37:04;96426.00;;;27.81;52.63
32933;BME280;19444;50.518;10.870;2022-08-05T11:41:00;96427.78;;;29.03;48.00
32933;BME280;19444;50.518;10.870;2022-08-05T11:44:19;96432.72;;;28.39;51.87
32933;BME280;19444;50.518;10.870;2022-08-05T11:47:37;96442.56;;;27.77;50.77
32933;BME280;19444;50.518;10.870;2022-08-05T11:50:50;96439.25;;;27.86;56.92
32933;BME280;19444;50.518;10.870;2022-08-05T11:53:47;96439.44;;;28.38;53.40
32933;BME280;19444;50.518;10.870;2022-08-05T11:56:51;96438.47;;;28.25;47.01
32933;BME280;19444;50.518;10.870;2022-08-05T11:59:48;96437.22;;;27.90;49.73
32933;BME280;19444;50.518;10.870;2022-08-05T12:02:46;96446.06;;;28.01;51.25
32933;BME280;19444;50.518;10.870;2022-08-05T12:05:43;96443.91;;;29.21;45.16
32933;BME280;19444;50.518;10.870;2022-08-05T12:08:47;96448.97;;;29.71;42.29
32933;BME280;19444;50.518;10.870;2022-08-05T12:11:47;96440.88;;;29.48;41.73
32933;BME280;19444;50.518;10.870;2022-08-05T12:14:46;96444.41;;;29.32;44.04
32933;BME280;19444;50.518;10.870;2022-08-05T12:17:45;96437.28;;;28.66;42.57
32933;BME280;19444;50.518;10.870;2022-08-05T12:21:18;96446.56;;;29.73;42.54
32933;BME280;19444;50.518;10.870;2022-08-05T12:24:19;96456.16;;;29.36;43.76
32933;BME280;19444;50.518;10.870;2022-08-05T12:27:26;96444.34;;;28.07;43.92
32933;BME280;19444;50.518;10.870;2022-08-05T12:30:37;96453.03;;;27.86;45.50
32933;BME280;19444;50.518;10.870;2022-08-05T12:33:43;96460.84;;;28.30;45.47
32933;BME280;19444;50.518;10.870;2022-08-05T12:36:43;96445.28;;;28.00;45.29
32933;BME280;19444;50.518;10.870;2022-08-05T12:39:43;96461.59;;;28.51;44.58
32933;BME280;19444;50.518;10.870;2022-08-05T12:42:44;96445.28;;;29.12;42.86
32933;BME280;19444;50.518;10.870;2022-08-05T12:45:55;96445.72;;;29.60;42.39
32933;BME280;19444;50.518;10.870;2022-08-05T12:49:04;96441.31;;;29.30;42.03
32933;BME280;19444;50.518;10.870;2022-08-05T12:52:15;96457.03;;;29.49;41.73
32933;BME280;19444;50.518;10.870;2022-08-05T12:55:29;96440.53;;;29.45;41.42
32933;BME280;19444;50.518;10.870;2022-08-05T12:58:28;96450.97;;;29.22;43.31
32933;BME280;19444;50.518;10.870;2022-08-05T13:01:57;96447.69;;;28.94;43.85
32933;BME280;19444;50.518;10.870;2022-08-05T13:05:06;96450.56;;;28.87;44.39
32933;BME280;19444;50.518;10.870;2022-08-05T13:08:10;96438.28;;;29.24;47.99
32933;BME280;19444;50.518;10.870;2022-08-05T13:11:07;96446.84;;;29.30;43.45
32933;BME280;19444;50.518;10.870;2022-08-05T13:17:17;96450.47;;;29.88;44.90
32933;BME280;19444;50.518;10.870;2022-08-05T13:20:20;96441.66;;;29.48;42.89
32933;BME280;19444;50.518;10.870;2022-08-05T13:23:22;96452.09;;;28.92;42.99
32933;BME280;19444;50.518;10.870;2022-08-05T13:26:20;96448.97;;;29.06;42.53
32933;BME280;19444;50.518;10.870;2022-08-05T13:29:25;96445.38;;;29.58;42.30
32933;BME280;19444;50.518;10.870;2022-08-05T13:32:38;96460.06;;;28.86;45.33
32933;BME280;19444;50.518;10.870;2022-08-05T13:35:45;96453.22;;;29.27;45.08
32933;BME280;19444;50.518;10.870;2022-08-05T13:38:47;96443.22;;;29.33;42.46
32933;BME280;19444;50.518;10.870;2022-08-05T13:41:47;96462.03;;;30.70;43.67
32933;BME280;19444;50.518;10.870;2022-08-05T13:44:45;96457.81;;;29.17;43.69
32933;BME280;19444;50.518;10.870;2022-08-05T13:47:42;96459.84;;;29.13;43.75
32933;BME280;19444;50.518;10.870;2022-08-05T13:51:06;96462.47;;;29.53;44.60
32933;BME280;19444;50.518;10.870;2022-08-05T13:54:05;96449.84;;;29.68;44.18
32933;BME280;19444;50.518;10.870;2022-08-05T13:57:10;96460.00;;;29.71;45.04
32933;BME280;19444;50.518;10.870;2022-08-05T14:00:11;96445.19;;;29.65;45.93
32933;BME280;19444;50.518;10.870;2022-08-05T14:03:08;96450.03;;;29.28;44.86
32933;BME280;19444;50.518;10.870;2022-08-05T14:06:05;96443.56;;;29.51;47.59
32933;BME280;19444;50.518;10.870;2022-08-05T14:09:22;96442.94;;;29.60;46.58
32933;BME280;19444;50.518;10.870;2022-08-05T14:12:25;96459.44;;;29.14;46.60
32933;BME280;19444;50.518;10.870;2022-08-05T14:15:28;96453.63;;;29.25;48.42
32933;BME280;19444;50.518;10.870;2022-08-05T14:18:45;96458.22;;;28.99;48.51
32933;BME280;19444;50.518;10.870;2022-08-05T14:21:42;96453.22;;;29.27;50.00
32933;BME280;19444;50.518;10.870;2022-08-05T14:24:59;96457.69;;;28.68;51.74
32933;BME280;19444;50.518;10.870;2022-08-05T14:27:56;96459.63;;;28.71;58.15
32933;BME280;19444;50.518;10.870;2022-08-05T14:30:56;96465.75;;;29.64;51.82
32933;BME280;19444;50.518;10.870;2022-08-05T14:33:53;96465.47;;;28.73;54.27
32933;BME280;19444;50.518;10.870;2022-08-05T14:36:56;96484.84;;;28.89;55.89
32933;BME280;19444;50.518;10.870;2022-08-05T14:39:54;96475.19;;;27.78;63.09
32933;BME280;19444;50.518;10.870;2022-08-05T14:42:52;96488.94;;;28.02;62.48
32933;BME280;19444;50.518;10.870;2022-08-05T14:45:51;96487.25;;;28.08;62.27
32933;BME280;19444;50.518;10.870;2022-08-05T14:48:49;96489.25;;;27.84;65.21
32933;BME280;19444;50.518;10.870;2022-08-05T14:51:48;96472.88;;;27.97;67.96
32933;BME280;19444;50.518;10.870;2022-08-05T14:54:46;96466.16;;;27.55;70.86
32933;BME280;19444;50.518;10.870;2022-08-05T14:57:49;96483.22;;;28.13;69.25
32933;BME280;19444;50.518;10.870;2022-08-05T15:00:52;96480.94;;;27.88;73.15
32933;BME280;19444;50.518;10.870;2022-08-05T15:03:55;96488.75;;;27.19;77.44
32933;BME280;19444;50.518;10.870;2022-08-05T15:06:52;96497.75;;;27.93;74.88
32933;BME280;19444;50.518;10.870;2022-08-05T15:09:49;96502.91;;;27.68;73.73
32933;BME280;19444;50.518;10.870;2022-08-05T15:12:50;96520.63;;;27.16;80.01
32933;BME280;19444;50.518;10.870;2022-08-05T15:15:58;96517.38;;;27.48;78.93
32933;BME280;19444;50.518;10.870;2022-08-05T15:18:56;96507.03;;;27.02;81.78
32933;BME280;19444;50.518;10.870;2022-08-05T15:21:57;96515.63;;;26.77;86.52
32933;BME280;19444;50.518;10.870;2022-08-05T15:24:56;96516.41;;;26.78;85.44
32933;BME280;19444;50.518;10.870;2022-08-05T15:27:55;96513.31;;;26.76;85.61
32933;BME280;19444;50.518;10.870;2022-08-05T15:30:52;96506.69;;;27.00;86.75
32933;BME280;19444;50.518;10.870;2022-08-05T15:33:49;96508.22;;;27.55;82.60
32933;BME280;19444;50.518;10.870;2022-08-05T15:37:02;96502.75;;;27.01;88.01
32933;BME280;19444;50.518;10.870;2022-08-05T15:40:10;96501.94;;;28.01;79.00
32933;BME280;19444;50.518;10.870;2022-08-05T15:43:27;96505.78;;;27.84;86.81
32933;BME280;19444;50.518;10.870;2022-08-05T15:46:41;96516.78;;;27.10;87.21
32933;BME280;19444;50.518;10.870;2022-08-05T15:49:38;96514.09;;;26.42;90.88
32933;BME280;19444;50.518;10.870;2022-08-05T15:52:54;96516.06;;;26.45;92.12
32933;BME280;19444;50.518;10.870;2022-08-05T15:55:55;96515.75;;;26.70;90.95
32933;BME280;19444;50.518;10.870;2022-08-05T15:58:58;96525.78;;;26.53;96.24
32933;BME280;19444;50.518;10.870;2022-08-05T16:01:55;96519.16;;;26.47;90.47
32933;BME280;19444;50.518;10.870;2022-08-05T16:04:56;96528.72;;;25.94;96.29
32933;BME280;19444;50.518;10.870;2022-08-05T16:07:53;96527.00;;;26.11;89.57
32933;BME280;19444;50.518;10.870;2022-08-05T16:10:52;96527.78;;;26.12;90.73
32933;BME280;19444;50.518;10.870;2022-08-05T16:13:49;96517.75;;;25.94;93.49
32933;BME280;19444;50.518;10.870;2022-08-05T16:16:46;96515.22;;;25.73;93.85
32933;BME280;19444;50.518;10.870;2022-08-05T16:19:44;96529.06;;;26.00;96.56